sensor_id;sensor_type;location;lat;lon;timestamp;temperature;humidity
8248;DHT22;4164;49.844;8.830;2023-03-04T00:02:22;-0.80;99.90
8248;DHT22;4164;49.844;8.830;2023-03-04T00:04:48;-0.80;99.90
8248;DHT22;4164;49.844;8.830;2023-03-04T00:07:14;-0.80;99.90
8248;DHT22;4164;49.844;8.830;2023-03-04T00:09:42;-0.80;99.90
8248;DHT22;4164;49.844;8.830;2023-03-04T00:12:08;-0.80;99.90
8248;DHT22;4164;49.844;8.830;2023-03-04T00:14:33;-0.80;99.90
8248;DHT22;4164;49.844;8.830;2023-03-04T00:16:59;-0.90;99.90
8248;DHT22;4164;49.844;8.830;2023-03-04T00:19:25;-0.90;99.90
8248;DHT22;4164;49.844;8.830;2023-03-04T00:21:50;-0.90;99.90
8248;DHT22;4164;49.844;8.830;2023-03-04T00:24:16;-0.90;99.90
8248;DHT22;4164;49.844;8.830;2023-03-04T00:26:41;-0.90;99.90
8248;DHT22;4164;49.844;8.830;2023-03-04T00:29:07;-0.90;99.90
8248;DHT22;4164;49.844;8.830;2023-03-04T00:31:32;-0.90;99.90
8248;DHT22;4164;49.844;8.830;2023-03-04T00:33:58;-1.10;99.90
8248;DHT22;4164;49.844;8.830;2023-03-04T00:36:23;-1.10;99.90
8248;DHT22;4164;49.844;8.830;2023-03-04T00:38:49;-0.30;99.90
8248;DHT22;4164;49.844;8.830;2023-03-04T00:41:15;-1.10;99.90
8248;DHT22;4164;49.844;8.830;2023-03-04T00:43:40;-1.10;99.90
8248;DHT22;4164;49.844;8.830;2023-03-04T00:46:06;-1.20;99.90
8248;DHT22;4164;49.844;8.830;2023-03-04T00:48:31;-1.20;99.90
8248;DHT22;4164;49.844;8.830;2023-03-04T00:50:57;-1.20;99.90
8248;DHT22;4164;49.844;8.830;2023-03-04T00:53:22;-1.10;99.90
8248;DHT22;4164;49.844;8.830;2023-03-04T00:55:48;-1.20;99.90
8248;DHT22;4164;49.844;8.830;2023-03-04T00:58:14;-1.30;99.90
8248;DHT22;4164;49.844;8.830;2023-03-04T01:00:40;-1.30;99.90
8248;DHT22;4164;49.844;8.830;2023-03-04T01:03:05;-1.10;99.90
8248;DHT22;4164;49.844;8.830;2023-03-04T01:05:31;-1.30;99.90
8248;DHT22;4164;49.844;8.830;2023-03-04T01:07:58;-1.20;99.90
8248;DHT22;4164;49.844;8.830;2023-03-04T01:10:24;-1.30;99.90
8248;DHT22;4164;49.844;8.830;2023-03-04T01:12:49;-1.30;99.90
8248;DHT22;4164;49.844;8.830;2023-03-04T01:15:15;-1.30;99.90
8248;DHT22;4164;49.844;8.830;2023-03-04T01:17:40;-1.30;99.90
8248;DHT22;4164;49.844;8.830;2023-03-04T01:20:07;-1.30;99.90
8248;DHT22;4164;49.844;8.830;2023-03-04T01:22:33;-1.40;99.90
8248;DHT22;4164;49.844;8.830;2023-03-04T01:24:59;-1.40;99.90
8248;DHT22;4164;49.844;8.830;2023-03-04T01:27:24;-1.40;99.90
8248;DHT22;4164;49.844;8.830;2023-03-04T01:29:50;-1.40;99.90
8248;DHT22;4164;49.844;8.830;2023-03-04T01:32:15;-1.50;99.90
8248;DHT22;4164;49.844;8.830;2023-03-04T01:34:41;-1.40;99.90
8248;DHT22;4164;49.844;8.830;2023-03-04T01:37:07;-1.50;99.90
8248;DHT22;4164;49.844;8.830;2023-03-04T01:39:33;-1.60;99.90
8248;DHT22;4164;49.844;8.830;2023-03-04T01:41:59;-1.50;99.90
8248;DHT22;4164;49.844;8.830;2023-03-04T01:44:25;-1.50;99.90
8248;DHT22;4164;49.844;8.830;2023-03-04T01:46:53;-1.60;99.90
8248;DHT22;4164;49.844;8.830;2023-03-04T01:49:19;-1.60;99.90
8248;DHT22;4164;49.844;8.830;2023-03-04T01:51:51;-1.60;99.90
8248;DHT22;4164;49.844;8.830;2023-03-04T01:54:19;-1.60;99.90
8248;DHT22;4164;49.844;8.830;2023-03-04T01:56:46;-1.60;99.90
8248;DHT22;4164;49.844;8.830;2023-03-04T01:59:18;-1.50;99.90
8248;DHT22;4164;49.844;8.830;2023-03-04T02:01:56;-1.50;99.90
8248;DHT22;4164;49.844;8.830;2023-03-04T02:04:28;-1.40;99.90
8248;DHT22;4164;49.844;8.830;2023-03-04T02:06:56;-1.20;99.90
8248;DHT22;4164;49.844;8.830;2023-03-04T02:09:22;-1.10;99.90
8248;DHT22;4164;49.844;8.830;2023-03-04T02:11:52;-1.10;99.90
8248;DHT22;4164;49.844;8.830;2023-03-04T02:14:18;-1.10;99.90
8248;DHT22;4164;49.844;8.830;2023-03-04T02:16:45;-1.10;99.90
8248;DHT22;4164;49.844;8.830;2023-03-04T02:19:30;-1.10;99.90
8248;DHT22;4164;49.844;8.830;2023-03-04T02:22:01;-0.90;99.90
8248;DHT22;4164;49.844;8.830;2023-03-04T02:27:01;-0.90;99.90
8248;DHT22;4164;49.844;8.830;2023-03-04T02:29:27;-0.70;99.90
8248;DHT22;4164;49.844;8.830;2023-03-04T02:31:53;-0.60;99.90
8248;DHT22;4164;49.844;8.830;2023-03-04T02:34:20;-0.50;99.90
8248;DHT22;4164;49.844;8.830;2023-03-04T02:36:47;-0.40;99.90
8248;DHT22;4164;49.844;8.830;2023-03-04T02:41:48;-0.30;99.90
8248;DHT22;4164;49.844;8.830;2023-03-04T02:44:19;-0.60;99.90
8248;DHT22;4164;49.844;8.830;2023-03-04T02:46:47;-0.60;99.90
8248;DHT22;4164;49.844;8.830;2023-03-04T02:49:13;-0.50;99.90
8248;DHT22;4164;49.844;8.830;2023-03-04T02:51:39;-0.30;99.90
8248;DHT22;4164;49.844;8.830;2023-03-04T02:54:14;-0.30;99.90
8248;DHT22;4164;49.844;8.830;2023-03-04T02:56:44;-0.20;99.90
8248;DHT22;4164;49.844;8.830;2023-03-04T02:59:10;-0.10;99.90
8248;DHT22;4164;49.844;8.830;2023-03-04T03:01:35;0.00;99.90
8248;DHT22;4164;49.844;8.830;2023-03-04T03:04:01;0.00;99.90
8248;DHT22;4164;49.844;8.830;2023-03-04T03:06:26;-0.10;99.90
8248;DHT22;4164;49.844;8.830;2023-03-04T03:08:52;-0.10;99.90
8248;DHT22;4164;49.844;8.830;2023-03-04T03:11:17;0.00;99.90
8248;DHT22;4164;49.844;8.830;2023-03-04T03:13:43;0.00;99.90
8248;DHT22;4164;49.844;8.830;2023-03-04T03:16:09;0.10;99.90
8248;DHT22;4164;49.844;8.830;2023-03-04T03:18:34;0.30;99.90
8248;DHT22;4164;49.844;8.830;2023-03-04T03:21:00;0.30;99.90
8248;DHT22;4164;49.844;8.830;2023-03-04T03:23:25;0.30;99.90
8248;DHT22;4164;49.844;8.830;2023-03-04T03:25:51;0.40;99.90
8248;DHT22;4164;49.844;8.830;2023-03-04T03:28:16;0.40;99.90
8248;DHT22;4164;49.844;8.830;2023-03-04T03:30:42;0.40;99.90
8248;DHT22;4164;49.844;8.830;2023-03-04T03:33:07;0.30;99.90
8248;DHT22;4164;49.844;8.830;2023-03-04T03:35:33;0.40;99.90
8248;DHT22;4164;49.844;8.830;2023-03-04T03:37:58;0.60;99.90
8248;DHT22;4164;49.844;8.830;2023-03-04T03:40:24;0.60;99.90
8248;DHT22;4164;49.844;8.830;2023-03-04T03:42:50;0.50;99.90
8248;DHT22;4164;49.844;8.830;2023-03-04T03:45:15;0.50;99.90
8248;DHT22;4164;49.844;8.830;2023-03-04T03:47:41;0.70;99.90
8248;DHT22;4164;49.844;8.830;2023-03-04T03:50:07;0.50;99.90
8248;DHT22;4164;49.844;8.830;2023-03-04T03:52:32;0.50;99.90
8248;DHT22;4164;49.844;8.830;2023-03-04T03:54:58;0.50;99.90
8248;DHT22;4164;49.844;8.830;2023-03-04T03:57:26;0.60;99.90
8248;DHT22;4164;49.844;8.830;2023-03-04T03:59:52;0.70;99.90
8248;DHT22;4164;49.844;8.830;2023-03-04T04:02:17;0.70;99.90
8248;DHT22;4164;49.844;8.830;2023-03-04T04:04:43;0.70;99.90
8248;DHT22;4164;49.844;8.830;2023-03-04T04:07:08;0.80;99.90
8248;DHT22;4164;49.844;8.830;2023-03-04T04:09:37;0.90;99.90
8248;DHT22;4164;49.844;8.830;2023-03-04T04:12:04;0.90;99.90
8248;DHT22;4164;49.844;8.830;2023-03-04T04:14:30;0.80;99.90
8248;DHT22;4164;49.844;8.830;2023-03-04T04:16:55;0.80;99.90
8248;DHT22;4164;49.844;8.830;2023-03-04T04:19:21;0.80;99.90
8248;DHT22;4164;49.844;8.830;2023-03-04T04:21:47;0.90;99.90
8248;DHT22;4164;49.844;8.830;2023-03-04T04:24:13;1.00;99.90
8248;DHT22;4164;49.844;8.830;2023-03-04T04:26:39;0.90;99.90
8248;DHT22;4164;49.844;8.830;2023-03-04T04:29:05;1.00;99.90
8248;DHT22;4164;49.844;8.830;2023-03-04T04:31:31;1.10;99.90
8248;DHT22;4164;49.844;8.830;2023-03-04T04:33:56;1.10;99.90
8248;DHT22;4164;49.844;8.830;2023-03-04T04:36:22;1.10;99.90
8248;DHT22;4164;49.844;8.830;2023-03-04T04:38:48;1.20;99.90
8248;DHT22;4164;49.844;8.830;2023-03-04T04:41:27;1.30;99.90
8248;DHT22;4164;49.844;8.830;2023-03-04T04:43:53;1.20;99.90
8248;DHT22;4164;49.844;8.830;2023-03-04T04:46:19;1.30;99.90
8248;DHT22;4164;49.844;8.830;2023-03-04T04:48:45;1.30;99.90
8248;DHT22;4164;49.844;8.830;2023-03-04T04:51:11;1.30;99.90
8248;DHT22;4164;49.844;8.830;2023-03-04T04:53:37;1.30;99.90
8248;DHT22;4164;49.844;8.830;2023-03-04T04:56:10;1.20;99.90
8248;DHT22;4164;49.844;8.830;2023-03-04T04:58:36;1.30;99.90
8248;DHT22;4164;49.844;8.830;2023-03-04T05:01:02;1.30;99.90
8248;DHT22;4164;49.844;8.830;2023-03-04T05:03:29;1.20;99.90
8248;DHT22;4164;49.844;8.830;2023-03-04T05:05:54;1.20;99.90
8248;DHT22;4164;49.844;8.830;2023-03-04T05:08:20;1.10;99.90
8248;DHT22;4164;49.844;8.830;2023-03-04T05:10:45;0.90;99.90
8248;DHT22;4164;49.844;8.830;2023-03-04T05:13:11;1.00;99.90
8248;DHT22;4164;49.844;8.830;2023-03-04T05:15:37;1.10;99.90
8248;DHT22;4164;49.844;8.830;2023-03-04T05:18:03;1.10;99.90
8248;DHT22;4164;49.844;8.830;2023-03-04T05:20:29;1.10;99.90
8248;DHT22;4164;49.844;8.830;2023-03-04T05:22:54;1.10;99.90
8248;DHT22;4164;49.844;8.830;2023-03-04T05:25:20;1.30;99.90
8248;DHT22;4164;49.844;8.830;2023-03-04T05:27:46;1.30;99.90
8248;DHT22;4164;49.844;8.830;2023-03-04T05:30:11;1.10;99.90
8248;DHT22;4164;49.844;8.830;2023-03-04T05:32:37;1.30;99.90
8248;DHT22;4164;49.844;8.830;2023-03-04T05:35:03;1.40;99.90
8248;DHT22;4164;49.844;8.830;2023-03-04T05:37:29;1.50;99.90
8248;DHT22;4164;49.844;8.830;2023-03-04T05:39:54;1.50;99.90
8248;DHT22;4164;49.844;8.830;2023-03-04T05:42:20;1.60;99.90
8248;DHT22;4164;49.844;8.830;2023-03-04T05:44:45;1.50;99.90
8248;DHT22;4164;49.844;8.830;2023-03-04T05:47:11;1.30;99.90
8248;DHT22;4164;49.844;8.830;2023-03-04T05:49:36;1.40;99.90
8248;DHT22;4164;49.844;8.830;2023-03-04T05:52:02;1.60;99.90
8248;DHT22;4164;49.844;8.830;2023-03-04T05:54:27;1.70;99.90
8248;DHT22;4164;49.844;8.830;2023-03-04T05:56:53;1.60;99.90
8248;DHT22;4164;49.844;8.830;2023-03-04T05:59:19;1.50;99.90
8248;DHT22;4164;49.844;8.830;2023-03-04T06:01:45;1.60;99.90
8248;DHT22;4164;49.844;8.830;2023-03-04T06:04:11;1.80;99.90
8248;DHT22;4164;49.844;8.830;2023-03-04T06:06:37;1.80;99.90
8248;DHT22;4164;49.844;8.830;2023-03-04T06:09:03;1.80;99.90
8248;DHT22;4164;49.844;8.830;2023-03-04T06:11:29;1.90;99.90
8248;DHT22;4164;49.844;8.830;2023-03-04T06:13:54;1.80;99.90
8248;DHT22;4164;49.844;8.830;2023-03-04T06:16:20;1.80;99.90
8248;DHT22;4164;49.844;8.830;2023-03-04T06:18:45;1.70;99.90
8248;DHT22;4164;49.844;8.830;2023-03-04T06:21:11;1.70;99.90
8248;DHT22;4164;49.844;8.830;2023-03-04T06:23:37;1.70;99.90
8248;DHT22;4164;49.844;8.830;2023-03-04T06:26:02;1.50;99.90
8248;DHT22;4164;49.844;8.830;2023-03-04T06:28:28;1.50;99.90
8248;DHT22;4164;49.844;8.830;2023-03-04T06:30:55;1.70;99.90
8248;DHT22;4164;49.844;8.830;2023-03-04T06:33:22;1.70;99.90
8248;DHT22;4164;49.844;8.830;2023-03-04T06:35:47;1.90;99.90
8248;DHT22;4164;49.844;8.830;2023-03-04T06:38:13;1.80;99.90
8248;DHT22;4164;49.844;8.830;2023-03-04T06:40:39;1.80;99.90
8248;DHT22;4164;49.844;8.830;2023-03-04T06:43:04;1.80;99.90
8248;DHT22;4164;49.844;8.830;2023-03-04T06:45:30;1.80;99.90
8248;DHT22;4164;49.844;8.830;2023-03-04T06:47:55;1.90;99.90
8248;DHT22;4164;49.844;8.830;2023-03-04T06:50:21;2.10;99.90
8248;DHT22;4164;49.844;8.830;2023-03-04T06:52:46;2.30;99.90
8248;DHT22;4164;49.844;8.830;2023-03-04T06:55:13;2.30;99.90
8248;DHT22;4164;49.844;8.830;2023-03-04T06:57:39;2.20;99.90
8248;DHT22;4164;49.844;8.830;2023-03-04T07:00:05;2.00;99.90
8248;DHT22;4164;49.844;8.830;2023-03-04T07:02:31;1.90;99.90
8248;DHT22;4164;49.844;8.830;2023-03-04T07:04:57;2.20;99.90
8248;DHT22;4164;49.844;8.830;2023-03-04T07:07:23;2.20;99.90
8248;DHT22;4164;49.844;8.830;2023-03-04T07:09:50;2.10;99.90
8248;DHT22;4164;49.844;8.830;2023-03-04T07:12:16;2.10;99.90
8248;DHT22;4164;49.844;8.830;2023-03-04T07:14:41;2.10;99.90
8248;DHT22;4164;49.844;8.830;2023-03-04T07:17:07;2.10;99.90
8248;DHT22;4164;49.844;8.830;2023-03-04T07:19:32;2.10;99.90
8248;DHT22;4164;49.844;8.830;2023-03-04T07:21:58;2.30;99.90
8248;DHT22;4164;49.844;8.830;2023-03-04T07:24:23;2.10;99.90
8248;DHT22;4164;49.844;8.830;2023-03-04T07:26:49;2.20;99.90
8248;DHT22;4164;49.844;8.830;2023-03-04T07:29:14;2.40;99.90
8248;DHT22;4164;49.844;8.830;2023-03-04T07:31:40;2.50;99.90
8248;DHT22;4164;49.844;8.830;2023-03-04T07:34:09;2.60;99.90
8248;DHT22;4164;49.844;8.830;2023-03-04T07:36:35;2.70;99.90
8248;DHT22;4164;49.844;8.830;2023-03-04T07:39:02;2.80;99.90
8248;DHT22;4164;49.844;8.830;2023-03-04T07:41:28;3.00;99.90
8248;DHT22;4164;49.844;8.830;2023-03-04T07:43:58;3.10;99.90
8248;DHT22;4164;49.844;8.830;2023-03-04T07:46:24;2.90;99.90
8248;DHT22;4164;49.844;8.830;2023-03-04T07:48:50;2.70;99.90
8248;DHT22;4164;49.844;8.830;2023-03-04T07:51:18;2.80;99.90
8248;DHT22;4164;49.844;8.830;2023-03-04T07:53:46;2.80;99.90
8248;DHT22;4164;49.844;8.830;2023-03-04T07:56:17;2.80;99.90
8248;DHT22;4164;49.844;8.830;2023-03-04T07:58:43;2.90;99.90
8248;DHT22;4164;49.844;8.830;2023-03-04T08:01:15;2.80;99.90
8248;DHT22;4164;49.844;8.830;2023-03-04T08:03:41;2.70;99.90
8248;DHT22;4164;49.844;8.830;2023-03-04T08:06:08;2.70;99.90
8248;DHT22;4164;49.844;8.830;2023-03-04T08:08:35;2.60;99.90
8248;DHT22;4164;49.844;8.830;2023-03-04T08:11:04;2.70;99.90
8248;DHT22;4164;49.844;8.830;2023-03-04T08:13:30;2.70;99.90
8248;DHT22;4164;49.844;8.830;2023-03-04T08:15:56;2.80;99.90
8248;DHT22;4164;49.844;8.830;2023-03-04T08:18:22;2.80;99.90
8248;DHT22;4164;49.844;8.830;2023-03-04T08:20:47;2.90;99.90
8248;DHT22;4164;49.844;8.830;2023-03-04T08:23:13;2.90;99.90
8248;DHT22;4164;49.844;8.830;2023-03-04T08:25:40;3.00;99.90
8248;DHT22;4164;49.844;8.830;2023-03-04T08:28:07;3.00;99.90
8248;DHT22;4164;49.844;8.830;2023-03-04T08:30:33;3.10;99.90
8248;DHT22;4164;49.844;8.830;2023-03-04T08:33:00;3.20;99.90
8248;DHT22;4164;49.844;8.830;2023-03-04T08:35:26;3.10;99.90
8248;DHT22;4164;49.844;8.830;2023-03-04T08:37:51;3.30;99.90
8248;DHT22;4164;49.844;8.830;2023-03-04T08:40:17;3.30;99.90
8248;DHT22;4164;49.844;8.830;2023-03-04T08:42:44;3.20;99.90
8248;DHT22;4164;49.844;8.830;2023-03-04T08:45:10;3.20;99.90
8248;DHT22;4164;49.844;8.830;2023-03-04T08:47:36;3.20;99.90
8248;DHT22;4164;49.844;8.830;2023-03-04T08:50:03;3.30;99.90
8248;DHT22;4164;49.844;8.830;2023-03-04T08:52:29;3.20;99.90
8248;DHT22;4164;49.844;8.830;2023-03-04T08:54:55;3.30;99.90
8248;DHT22;4164;49.844;8.830;2023-03-04T08:57:21;3.30;99.90
8248;DHT22;4164;49.844;8.830;2023-03-04T08:59:47;3.30;99.90
8248;DHT22;4164;49.844;8.830;2023-03-04T09:02:12;3.20;99.90
8248;DHT22;4164;49.844;8.830;2023-03-04T09:04:38;3.10;99.90
8248;DHT22;4164;49.844;8.830;2023-03-04T09:07:03;3.20;99.90
8248;DHT22;4164;49.844;8.830;2023-03-04T09:09:30;3.30;99.90
8248;DHT22;4164;49.844;8.830;2023-03-04T09:11:55;3.30;99.90
8248;DHT22;4164;49.844;8.830;2023-03-04T09:14:21;3.40;99.90
8248;DHT22;4164;49.844;8.830;2023-03-04T09:16:46;3.40;99.90
8248;DHT22;4164;49.844;8.830;2023-03-04T09:19:12;3.60;99.90
8248;DHT22;4164;49.844;8.830;2023-03-04T09:21:37;3.50;99.90
8248;DHT22;4164;49.844;8.830;2023-03-04T09:24:03;3.50;99.90
8248;DHT22;4164;49.844;8.830;2023-03-04T09:26:29;3.60;99.90
8248;DHT22;4164;49.844;8.830;2023-03-04T09:28:59;3.60;99.90
8248;DHT22;4164;49.844;8.830;2023-03-04T09:31:26;3.60;99.90
8248;DHT22;4164;49.844;8.830;2023-03-04T09:33:53;3.60;99.90
8248;DHT22;4164;49.844;8.830;2023-03-04T09:36:19;3.70;99.90
8248;DHT22;4164;49.844;8.830;2023-03-04T09:38:45;3.80;99.90
8248;DHT22;4164;49.844;8.830;2023-03-04T09:41:38;3.90;99.90
8248;DHT22;4164;49.844;8.830;2023-03-04T09:44:13;3.90;99.90
8248;DHT22;4164;49.844;8.830;2023-03-04T09:46:40;3.90;99.90
8248;DHT22;4164;49.844;8.830;2023-03-04T09:49:10;3.90;99.90
8248;DHT22;4164;49.844;8.830;2023-03-04T09:54:40;3.90;99.90
8248;DHT22;4164;49.844;8.830;2023-03-04T10:00:15;3.90;99.90
8248;DHT22;4164;49.844;8.830;2023-03-04T10:05:19;3.90;99.90
8248;DHT22;4164;49.844;8.830;2023-03-04T10:07:52;4.00;99.90
8248;DHT22;4164;49.844;8.830;2023-03-04T10:10:24;4.10;99.90
8248;DHT22;4164;49.844;8.830;2023-03-04T10:12:52;4.20;99.90
8248;DHT22;4164;49.844;8.830;2023-03-04T10:15:37;4.10;99.90
8248;DHT22;4164;49.844;8.830;2023-03-04T10:18:30;4.30;99.90
8248;DHT22;4164;49.844;8.830;2023-03-04T10:21:22;4.20;99.90
8248;DHT22;4164;49.844;8.830;2023-03-04T10:23:50;4.20;99.90
8248;DHT22;4164;49.844;8.830;2023-03-04T10:26:19;4.30;99.90
8248;DHT22;4164;49.844;8.830;2023-03-04T10:28:47;4.40;99.90
8248;DHT22;4164;49.844;8.830;2023-03-04T10:31:20;4.50;99.90
8248;DHT22;4164;49.844;8.830;2023-03-04T10:33:47;4.40;99.90
8248;DHT22;4164;49.844;8.830;2023-03-04T10:38:48;4.50;99.90
8248;DHT22;4164;49.844;8.830;2023-03-04T10:41:20;4.40;99.90
8248;DHT22;4164;49.844;8.830;2023-03-04T10:46:25;4.50;99.90
8248;DHT22;4164;49.844;8.830;2023-03-04T10:48:52;4.50;99.90
8248;DHT22;4164;49.844;8.830;2023-03-04T10:51:23;4.50;99.90
8248;DHT22;4164;49.844;8.830;2023-03-04T10:53:57;4.40;99.90
8248;DHT22;4164;49.844;8.830;2023-03-04T10:59:30;4.70;99.90
8248;DHT22;4164;49.844;8.830;2023-03-04T11:02:01;4.90;99.90
8248;DHT22;4164;49.844;8.830;2023-03-04T11:04:32;5.10;99.90
8248;DHT22;4164;49.844;8.830;2023-03-04T11:06:58;4.80;99.90
8248;DHT22;4164;49.844;8.830;2023-03-04T11:09:26;4.90;99.90
8248;DHT22;4164;49.844;8.830;2023-03-04T11:11:59;5.00;99.90
8248;DHT22;4164;49.844;8.830;2023-03-04T11:14:35;5.00;99.90
8248;DHT22;4164;49.844;8.830;2023-03-04T11:17:27;5.00;99.90
8248;DHT22;4164;49.844;8.830;2023-03-04T11:22:27;4.80;99.90
8248;DHT22;4164;49.844;8.830;2023-03-04T11:25:00;5.00;99.90
8248;DHT22;4164;49.844;8.830;2023-03-04T11:27:47;5.00;99.90
8248;DHT22;4164;49.844;8.830;2023-03-04T11:32:50;5.00;99.90
8248;DHT22;4164;49.844;8.830;2023-03-04T11:35:38;5.00;99.90
8248;DHT22;4164;49.844;8.830;2023-03-04T11:38:20;5.10;99.90
8248;DHT22;4164;49.844;8.830;2023-03-04T11:40:56;5.10;99.90
8248;DHT22;4164;49.844;8.830;2023-03-04T11:46:04;4.90;99.90
8248;DHT22;4164;49.844;8.830;2023-03-04T11:51:06;5.10;99.90
8248;DHT22;4164;49.844;8.830;2023-03-04T11:56:44;5.40;99.90
8248;DHT22;4164;49.844;8.830;2023-03-04T12:10:22;5.10;99.90
8248;DHT22;4164;49.844;8.830;2023-03-04T12:18:49;5.10;99.90
8248;DHT22;4164;49.844;8.830;2023-03-04T12:24:21;5.00;99.90
8248;DHT22;4164;49.844;8.830;2023-03-04T12:26:59;5.20;99.90
8248;DHT22;4164;49.844;8.830;2023-03-04T12:29:36;5.10;99.90
8248;DHT22;4164;49.844;8.830;2023-03-04T12:43:26;5.20;99.90
8248;DHT22;4164;49.844;8.830;2023-03-04T12:48:36;5.10;99.90
8248;DHT22;4164;49.844;8.830;2023-03-04T12:51:47;5.10;99.90
8248;DHT22;4164;49.844;8.830;2023-03-04T12:54:30;5.10;99.90
8248;DHT22;4164;49.844;8.830;2023-03-04T12:57:01;5.10;99.90
8248;DHT22;4164;49.844;8.830;2023-03-04T12:59:38;5.20;99.90
8248;DHT22;4164;49.844;8.830;2023-03-04T13:05:28;5.10;99.90
8248;DHT22;4164;49.844;8.830;2023-03-04T13:08:14;5.30;99.90
8248;DHT22;4164;49.844;8.830;2023-03-04T13:10:44;5.20;99.90
8248;DHT22;4164;49.844;8.830;2023-03-04T13:13:36;5.20;99.90
8248;DHT22;4164;49.844;8.830;2023-03-04T13:16:39;5.20;99.90
8248;DHT22;4164;49.844;8.830;2023-03-04T13:22:28;5.20;99.90
8248;DHT22;4164;49.844;8.830;2023-03-04T13:24:55;5.20;99.90
8248;DHT22;4164;49.844;8.830;2023-03-04T13:27:47;5.00;99.90
8248;DHT22;4164;49.844;8.830;2023-03-04T13:38:37;5.40;99.90
8248;DHT22;4164;49.844;8.830;2023-03-04T13:41:15;5.40;99.90
8248;DHT22;4164;49.844;8.830;2023-03-04T13:43:55;5.40;99.90
8248;DHT22;4164;49.844;8.830;2023-03-04T13:51:39;5.50;99.90
8248;DHT22;4164;49.844;8.830;2023-03-04T13:54:26;5.70;99.90
8248;DHT22;4164;49.844;8.830;2023-03-04T13:59:32;5.70;99.90
8248;DHT22;4164;49.844;8.830;2023-03-04T14:02:08;5.60;99.90
8248;DHT22;4164;49.844;8.830;2023-03-04T14:04:37;5.80;99.90
8248;DHT22;4164;49.844;8.830;2023-03-04T14:07:23;5.90;99.90
8248;DHT22;4164;49.844;8.830;2023-03-04T14:12:28;5.60;99.90
8248;DHT22;4164;49.844;8.830;2023-03-04T14:15:04;5.60;99.90
8248;DHT22;4164;49.844;8.830;2023-03-04T14:17:36;5.80;99.90
8248;DHT22;4164;49.844;8.830;2023-03-04T14:20:03;5.90;99.90
8248;DHT22;4164;49.844;8.830;2023-03-04T14:22:32;5.70;99.90
8248;DHT22;4164;49.844;8.830;2023-03-04T14:27:38;5.40;99.90
8248;DHT22;4164;49.844;8.830;2023-03-04T14:30:18;5.40;99.90
8248;DHT22;4164;49.844;8.830;2023-03-04T14:32:44;5.30;99.90
8248;DHT22;4164;49.844;8.830;2023-03-04T14:35:24;5.40;99.90
8248;DHT22;4164;49.844;8.830;2023-03-04T14:38:02;5.50;99.90
8248;DHT22;4164;49.844;8.830;2023-03-04T14:40:32;5.60;99.90
8248;DHT22;4164;49.844;8.830;2023-03-04T14:43:14;5.50;99.90
8248;DHT22;4164;49.844;8.830;2023-03-04T14:45:42;5.30;99.90
8248;DHT22;4164;49.844;8.830;2023-03-04T14:48:15;5.30;99.90
8248;DHT22;4164;49.844;8.830;2023-03-04T14:50:49;5.30;99.90
8248;DHT22;4164;49.844;8.830;2023-03-04T14:53:18;5.40;99.90
8248;DHT22;4164;49.844;8.830;2023-03-04T14:56:04;5.40;99.90
8248;DHT22;4164;49.844;8.830;2023-03-04T14:58:32;5.30;99.90
8248;DHT22;4164;49.844;8.830;2023-03-04T15:01:17;5.30;99.90
8248;DHT22;4164;49.844;8.830;2023-03-04T15:06:51;5.30;99.90
8248;DHT22;4164;49.844;8.830;2023-03-04T15:09:22;5.40;99.90
8248;DHT22;4164;49.844;8.830;2023-03-04T15:11:51;5.40;99.90
8248;DHT22;4164;49.844;8.830;2023-03-04T15:14:47;5.50;99.90
8248;DHT22;4164;49.844;8.830;2023-03-04T15:17:33;5.50;99.90
8248;DHT22;4164;49.844;8.830;2023-03-04T15:22:35;5.70;99.90
8248;DHT22;4164;49.844;8.830;2023-03-04T15:25:01;5.40;99.90
8248;DHT22;4164;49.844;8.830;2023-03-04T15:27:29;5.30;99.90
8248;DHT22;4164;49.844;8.830;2023-03-04T15:29:56;5.40;99.90
8248;DHT22;4164;49.844;8.830;2023-03-04T15:32:32;5.50;99.90
8248;DHT22;4164;49.844;8.830;2023-03-04T15:34:58;5.40;99.90
8248;DHT22;4164;49.844;8.830;2023-03-04T15:37:26;5.40;99.90
8248;DHT22;4164;49.844;8.830;2023-03-04T15:39:54;5.30;99.90
8248;DHT22;4164;49.844;8.830;2023-03-04T15:42:20;5.30;99.90
8248;DHT22;4164;49.844;8.830;2023-03-04T15:44:46;5.30;99.90
8248;DHT22;4164;49.844;8.830;2023-03-04T15:47:12;5.30;99.90
8248;DHT22;4164;49.844;8.830;2023-03-04T15:49:43;5.30;99.90
8248;DHT22;4164;49.844;8.830;2023-03-04T15:52:20;5.30;99.90
8248;DHT22;4164;49.844;8.830;2023-03-04T15:54:47;5.40;99.90
8248;DHT22;4164;49.844;8.830;2023-03-04T15:57:21;5.30;99.90
8248;DHT22;4164;49.844;8.830;2023-03-04T15:59:48;5.20;99.90
8248;DHT22;4164;49.844;8.830;2023-03-04T16:02:18;5.30;99.90
8248;DHT22;4164;49.844;8.830;2023-03-04T16:04:44;5.10;99.90
8248;DHT22;4164;49.844;8.830;2023-03-04T16:07:23;5.00;99.90
8248;DHT22;4164;49.844;8.830;2023-03-04T16:09:59;5.10;99.90
8248;DHT22;4164;49.844;8.830;2023-03-04T16:12:27;5.10;99.90
8248;DHT22;4164;49.844;8.830;2023-03-04T16:14:53;5.10;99.90
8248;DHT22;4164;49.844;8.830;2023-03-04T16:17:19;5.10;99.90
8248;DHT22;4164;49.844;8.830;2023-03-04T16:19:45;5.10;99.90
8248;DHT22;4164;49.844;8.830;2023-03-04T16:22:15;5.10;99.90
8248;DHT22;4164;49.844;8.830;2023-03-04T16:24:42;5.20;99.90
8248;DHT22;4164;49.844;8.830;2023-03-04T16:27:13;5.20;99.90
8248;DHT22;4164;49.844;8.830;2023-03-04T16:29:40;5.20;99.90
8248;DHT22;4164;49.844;8.830;2023-03-04T16:32:06;5.20;99.90
8248;DHT22;4164;49.844;8.830;2023-03-04T16:34:32;5.10;99.90
8248;DHT22;4164;49.844;8.830;2023-03-04T16:37:10;5.00;99.90
8248;DHT22;4164;49.844;8.830;2023-03-04T16:39:36;5.10;99.90
8248;DHT22;4164;49.844;8.830;2023-03-04T16:42:02;5.10;99.90
8248;DHT22;4164;49.844;8.830;2023-03-04T16:44:28;5.10;99.90
8248;DHT22;4164;49.844;8.830;2023-03-04T16:46:53;5.10;99.90
8248;DHT22;4164;49.844;8.830;2023-03-04T16:49:19;5.00;99.90
8248;DHT22;4164;49.844;8.830;2023-03-04T16:51:48;4.90;99.90
8248;DHT22;4164;49.844;8.830;2023-03-04T16:54:25;4.90;99.90
8248;DHT22;4164;49.844;8.830;2023-03-04T16:56:52;4.90;99.90
8248;DHT22;4164;49.844;8.830;2023-03-04T16:59:17;5.00;99.90
8248;DHT22;4164;49.844;8.830;2023-03-04T17:01:43;5.00;99.90
8248;DHT22;4164;49.844;8.830;2023-03-04T17:04:09;5.10;99.90
8248;DHT22;4164;49.844;8.830;2023-03-04T17:06:34;5.00;99.90
8248;DHT22;4164;49.844;8.830;2023-03-04T17:09:03;4.90;99.90
8248;DHT22;4164;49.844;8.830;2023-03-04T17:11:29;4.90;99.90
8248;DHT22;4164;49.844;8.830;2023-03-04T17:13:55;4.90;99.90
8248;DHT22;4164;49.844;8.830;2023-03-04T17:16:20;4.90;99.90
8248;DHT22;4164;49.844;8.830;2023-03-04T17:18:47;4.80;99.90
8248;DHT22;4164;49.844;8.830;2023-03-04T17:21:15;4.80;99.90
8248;DHT22;4164;49.844;8.830;2023-03-04T17:23:41;4.90;99.90
8248;DHT22;4164;49.844;8.830;2023-03-04T17:26:07;4.90;99.90
8248;DHT22;4164;49.844;8.830;2023-03-04T17:28:33;4.90;99.90
8248;DHT22;4164;49.844;8.830;2023-03-04T17:31:00;5.00;99.90
8248;DHT22;4164;49.844;8.830;2023-03-04T17:33:26;5.00;99.90
8248;DHT22;4164;49.844;8.830;2023-03-04T17:35:52;4.90;99.90
8248;DHT22;4164;49.844;8.830;2023-03-04T17:38:17;4.90;99.90
8248;DHT22;4164;49.844;8.830;2023-03-04T17:40:43;4.90;99.90
8248;DHT22;4164;49.844;8.830;2023-03-04T17:43:09;4.90;99.90
8248;DHT22;4164;49.844;8.830;2023-03-04T17:45:39;4.80;99.90
8248;DHT22;4164;49.844;8.830;2023-03-04T17:48:05;4.90;99.90
8248;DHT22;4164;49.844;8.830;2023-03-04T17:50:31;4.90;99.90
8248;DHT22;4164;49.844;8.830;2023-03-04T17:52:57;4.90;99.90
8248;DHT22;4164;49.844;8.830;2023-03-04T17:55:23;4.90;99.90
8248;DHT22;4164;49.844;8.830;2023-03-04T17:57:48;4.90;99.90
8248;DHT22;4164;49.844;8.830;2023-03-04T18:00:18;4.90;99.90
8248;DHT22;4164;49.844;8.830;2023-03-04T18:02:44;4.90;99.90
8248;DHT22;4164;49.844;8.830;2023-03-04T18:05:09;4.90;99.90
8248;DHT22;4164;49.844;8.830;2023-03-04T18:07:35;4.80;99.90